createdAt,value
2022-11-25T00:01:27.362Z,91.41
2022-11-25T00:03:56.771Z,91.22
2022-11-25T00:06:29.879Z,91.09
2022-11-25T00:09:04.063Z,90.95
2022-11-25T00:11:34.295Z,90.75
2022-11-25T00:14:02.117Z,90.77
2022-11-25T00:16:29.895Z,90.78
2022-11-25T00:18:58.589Z,90.94
2022-11-25T00:21:28.889Z,90.97
2022-11-25T00:24:02.597Z,91.03
2022-11-25T00:26:33.073Z,91.17
2022-11-25T00:29:04.122Z,91.30
2022-11-25T00:31:34.533Z,91.20
2022-11-25T00:34:03.278Z,91.31
2022-11-25T00:36:33.966Z,91.13
2022-11-25T00:39:09.505Z,90.67
2022-11-25T00:41:56.773Z,90.57
2022-11-25T00:44:37.847Z,90.97
2022-11-25T00:47:06.402Z,90.82
2022-11-25T00:49:34.323Z,90.68
2022-11-25T00:52:02.275Z,90.72
2022-11-25T00:54:30.102Z,91.03
2022-11-25T00:56:58.989Z,91.08
2022-11-25T00:59:28.815Z,91.24
2022-11-25T01:01:57.129Z,91.09
2022-11-25T01:04:25.339Z,90.65
2022-11-25T01:06:56.842Z,90.58
2022-11-25T01:09:24.590Z,90.33
2022-11-25T01:11:53.070Z,90.21
2022-11-25T01:14:22.375Z,90.33
2022-11-25T01:16:52.569Z,90.23
2022-11-25T01:19:20.924Z,90.18
2022-11-25T01:21:48.829Z,90.25
2022-11-25T01:24:17.299Z,90.45
2022-11-25T01:26:46.011Z,90.47
2022-11-25T01:29:17.009Z,90.49
2022-11-25T01:31:46.177Z,90.07
2022-11-25T01:34:25.068Z,89.75
2022-11-25T01:36:52.838Z,89.86
2022-11-25T01:39:25.648Z,90.09
2022-11-25T01:41:56.312Z,89.93
2022-11-25T01:44:27.648Z,89.59
2022-11-25T01:47:18.765Z,89.91
2022-11-25T01:49:55.626Z,90.10
2022-11-25T01:52:33.965Z,90.39
2022-11-25T01:55:22.443Z,90.76
2022-11-25T01:57:54.433Z,90.58
2022-11-25T02:00:25.588Z,90.32
2022-11-25T02:02:55.502Z,90.24
2022-11-25T02:05:34.595Z,89.85
2022-11-25T02:08:03.591Z,89.86
2022-11-25T02:10:34.570Z,89.91
2022-11-25T02:13:03.689Z,89.86
2022-11-25T02:15:34.920Z,90.23
2022-11-25T02:18:05.603Z,90.44
2022-11-25T02:20:33.665Z,90.37
2022-11-25T02:27:01.260Z,90.35
2022-11-25T02:29:28.145Z,90.08
2022-11-25T02:31:54.510Z,90.08
2022-11-25T02:34:20.984Z,89.92
2022-11-25T02:36:48.918Z,89.83
2022-11-25T02:39:18.122Z,89.95
2022-11-25T02:41:51.719Z,89.90
2022-11-25T02:44:18.254Z,89.80
2022-11-25T02:46:44.749Z,90.17
2022-11-25T02:49:11.368Z,90.21
2022-11-25T02:51:40.886Z,90.41
2022-11-25T02:54:09.300Z,90.58
2022-11-25T02:56:37.375Z,90.34
2022-11-25T02:59:04.265Z,90.21
2022-11-25T03:01:30.920Z,90.28
2022-11-25T03:03:57.887Z,90.20
2022-11-25T03:06:28.373Z,90.06
2022-11-25T03:08:55.298Z,90.05
2022-11-25T03:11:41.971Z,90.04
2022-11-25T03:14:08.486Z,89.94
2022-11-25T03:16:35.083Z,90.28
2022-11-25T03:19:03.883Z,90.36
2022-11-25T03:21:30.677Z,90.23
2022-11-25T03:23:57.123Z,90.13
2022-11-25T03:26:25.291Z,89.72
2022-11-25T03:28:52.146Z,89.74
2022-11-25T03:31:18.808Z,89.65
2022-11-25T03:33:45.219Z,89.57
2022-11-25T03:36:11.930Z,89.76
2022-11-25T03:38:38.344Z,89.73
2022-11-25T03:41:04.977Z,90.03
2022-11-25T03:43:32.441Z,89.98
2022-11-25T03:45:58.792Z,89.98
2022-11-25T03:48:25.125Z,89.94
2022-11-25T03:50:51.691Z,90.16
2022-11-25T03:53:18.006Z,90.03
2022-11-25T03:55:47.277Z,89.83
2022-11-25T03:58:13.825Z,89.57
2022-11-25T04:00:40.206Z,89.52
2022-11-25T04:03:06.616Z,89.44
2022-11-25T04:05:33.003Z,89.54
2022-11-25T04:08:02.766Z,89.72
2022-11-25T04:10:29.863Z,89.76
2022-11-25T04:12:58.229Z,89.74
2022-11-25T04:15:30.760Z,90.31
2022-11-25T04:17:57.683Z,90.27
2022-11-25T04:20:24.401Z,90.12
2022-11-25T04:26:24.612Z,89.38
2022-11-25T04:28:53.099Z,89.31
2022-11-25T04:31:21.377Z,89.29
2022-11-25T04:33:52.585Z,89.16
2022-11-25T04:36:21.030Z,89.61
2022-11-25T04:38:49.039Z,89.72
2022-11-25T04:41:18.423Z,89.29
2022-11-25T04:43:46.377Z,89.28
2022-11-25T04:46:17.963Z,89.40
2022-11-25T04:48:50.730Z,89.61
2022-11-25T04:51:18.799Z,89.24
2022-11-25T04:53:47.566Z,88.91
2022-11-25T04:56:18.591Z,88.87
2022-11-25T04:59:05.729Z,88.41
2022-11-25T05:01:33.954Z,88.52
2022-11-25T05:04:10.207Z,88.34
2022-11-25T05:06:37.957Z,88.37
2022-11-25T05:09:06.576Z,88.48
2022-11-25T05:11:35.534Z,88.60
2022-11-25T05:14:03.552Z,89.07
2022-11-25T05:16:31.876Z,88.99
2022-11-25T05:19:00.030Z,89.16
2022-11-25T05:21:28.005Z,88.96
2022-11-25T05:23:56.132Z,89.13
2022-11-25T05:26:24.260Z,88.77
2022-11-25T05:28:54.576Z,88.98
2022-11-25T05:31:22.340Z,89.04
2022-11-25T05:33:50.824Z,88.97
2022-11-25T05:36:19.022Z,89.06
2022-11-25T05:38:48.317Z,89.19
2022-11-25T05:41:21.443Z,89.44
2022-11-25T05:43:49.321Z,89.47
2022-11-25T05:46:17.882Z,89.30
2022-11-25T05:48:53.310Z,89.33
2022-11-25T05:51:22.369Z,88.84
2022-11-25T05:53:51.000Z,88.62
2022-11-25T05:56:19.334Z,88.77
2022-11-25T05:59:22.525Z,89.38
2022-11-25T06:02:05.012Z,89.11
2022-11-25T06:04:33.592Z,88.96
2022-11-25T06:07:01.771Z,89.15
2022-11-25T06:09:29.939Z,89.16
2022-11-25T06:11:57.925Z,89.02
2022-11-25T06:14:25.949Z,89.27
2022-11-25T06:16:53.766Z,89.04
2022-11-25T06:19:29.048Z,89.09
2022-11-25T06:21:56.723Z,89.28
2022-11-25T06:24:25.618Z,88.73
2022-11-25T06:26:57.124Z,88.85
2022-11-25T06:29:25.016Z,89.30
2022-11-25T06:31:52.793Z,89.01
2022-11-25T06:34:32.454Z,88.74
2022-11-25T06:37:01.164Z,89.35
2022-11-25T06:39:28.844Z,89.61
2022-11-25T06:41:56.708Z,89.45
2022-11-25T06:44:24.388Z,89.57
2022-11-25T06:46:52.239Z,89.59
2022-11-25T06:49:19.949Z,89.18
2022-11-25T06:51:49.726Z,89.06
2022-11-25T06:54:17.332Z,89.07
2022-11-25T06:56:45.058Z,89.21
2022-11-25T06:59:12.845Z,88.79
2022-11-25T07:01:40.698Z,88.81
2022-11-25T07:04:08.451Z,89.22
2022-11-25T07:06:36.166Z,89.43
2022-11-25T07:09:04.679Z,89.47
2022-11-25T07:11:35.317Z,89.43
2022-11-25T07:14:06.351Z,89.36
2022-11-25T07:16:34.223Z,89.16
2022-11-25T07:19:03.183Z,89.07
2022-11-25T07:21:32.745Z,88.96
2022-11-25T07:24:02.687Z,88.71
2022-11-25T07:26:33.287Z,88.72
2022-11-25T07:29:04.264Z,88.78
2022-11-25T07:31:34.869Z,88.93
2022-11-25T07:34:08.199Z,89.20
2022-11-25T07:36:36.524Z,89.35
2022-11-25T07:39:07.877Z,89.13
2022-11-25T07:41:35.625Z,88.62
2022-11-25T07:44:05.772Z,88.57
2022-11-25T07:46:47.578Z,88.61
2022-11-25T07:49:18.517Z,88.79
2022-11-25T07:51:48.942Z,88.34
2022-11-25T07:54:17.466Z,88.44
2022-11-25T07:56:45.653Z,88.85
2022-11-25T07:59:15.692Z,88.56
2022-11-25T08:01:44.270Z,88.96
2022-11-25T08:04:19.494Z,89.16
2022-11-25T08:06:49.057Z,89.20
2022-11-25T08:09:19.824Z,88.90
2022-11-25T08:11:49.109Z,88.41
2022-11-25T08:14:17.023Z,88.60
2022-11-25T08:16:45.195Z,88.59
2022-11-25T08:19:15.714Z,88.45
2022-11-25T08:21:43.941Z,88.59
2022-11-25T08:24:20.678Z,88.23
2022-11-25T08:26:48.718Z,88.36
2022-11-25T08:29:18.212Z,88.61
2022-11-25T08:31:46.352Z,89.11
2022-11-25T08:34:23.436Z,89.09
2022-11-25T08:36:52.698Z,88.53
2022-11-25T08:39:50.690Z,88.83
2022-11-25T08:42:09.426Z,88.62
2022-11-25T08:44:37.394Z,88.35
2022-11-25T08:47:05.226Z,88.17
2022-11-25T08:49:39.148Z,88.26
2022-11-25T08:52:09.888Z,88.25
2022-11-25T08:54:38.158Z,88.05
2022-11-25T08:57:06.176Z,88.00
2022-11-25T08:59:34.071Z,88.48
2022-11-25T09:02:02.376Z,88.54
2022-11-25T09:04:30.132Z,88.46
2022-11-25T09:06:57.881Z,88.22
2022-11-25T09:09:26.115Z,87.93
2022-11-25T09:11:54.449Z,87.95
2022-11-25T09:14:22.407Z,87.93
2022-11-25T09:16:50.288Z,87.70
2022-11-25T09:19:17.944Z,87.85
2022-11-25T09:21:45.628Z,88.09
2022-11-25T09:27:57.482Z,88.51
2022-11-25T09:30:26.350Z,88.76
2022-11-25T09:32:55.485Z,88.30
2022-11-25T09:35:25.183Z,87.90
2022-11-25T09:37:53.249Z,88.03
2022-11-25T09:40:40.645Z,88.05
2022-11-25T09:43:55.779Z,87.86
2022-11-25T09:46:42.001Z,88.36
2022-11-25T09:49:28.521Z,88.61
2022-11-25T09:52:10.784Z,88.71
2022-11-25T09:54:49.360Z,88.89
2022-11-25T09:57:48.288Z,88.60
2022-11-25T10:00:20.077Z,88.23
2022-11-25T10:02:51.007Z,87.96
2022-11-25T10:05:24.964Z,87.53
2022-11-25T10:07:56.588Z,88.10
2022-11-25T10:10:29.034Z,88.00
2022-11-25T10:12:58.743Z,88.08
2022-11-25T10:15:45.434Z,87.78
2022-11-25T10:18:21.399Z,88.38
2022-11-25T10:20:50.717Z,88.23
2022-11-25T10:23:28.540Z,88.38
2022-11-25T10:26:01.416Z,88.46
2022-11-25T10:28:34.296Z,88.91
2022-11-25T10:31:02.006Z,88.60
2022-11-25T10:33:44.025Z,88.44
2022-11-25T10:36:14.906Z,88.47
2022-11-25T10:39:00.925Z,88.34
2022-11-25T10:41:35.626Z,88.38
2022-11-25T10:44:04.146Z,88.16
2022-11-25T10:50:05.863Z,88.20
2022-11-25T10:52:46.780Z,88.36
2022-11-25T10:55:20.725Z,88.65
2022-11-25T10:57:48.437Z,89.05
2022-11-25T11:00:32.711Z,89.31
2022-11-25T11:03:14.780Z,89.16
2022-11-25T11:05:51.364Z,88.62
2022-11-25T11:08:23.002Z,88.88
2022-11-25T11:11:23.388Z,88.44
2022-11-25T11:14:18.999Z,88.72
2022-11-25T11:16:55.649Z,88.94
2022-11-25T11:19:27.332Z,88.66
2022-11-25T11:21:56.422Z,89.24
2022-11-25T11:24:35.815Z,89.08
2022-11-25T11:27:24.827Z,89.21
2022-11-25T11:30:23.913Z,89.16
2022-11-25T11:33:04.629Z,89.19
2022-11-25T11:36:02.170Z,89.27
2022-11-25T11:38:36.872Z,88.72
2022-11-25T11:41:30.190Z,88.42
2022-11-25T11:44:07.779Z,88.70
2022-11-25T11:46:40.667Z,88.28
2022-11-25T11:49:45.584Z,88.53
2022-11-25T11:52:34.647Z,88.53
2022-11-25T11:55:25.488Z,88.61
2022-11-25T11:58:11.411Z,88.93
2022-11-25T12:01:05.626Z,88.52
2022-11-25T12:03:41.976Z,88.17
2022-11-25T12:06:12.055Z,88.12
2022-11-25T12:08:52.736Z,88.54
2022-11-25T12:11:25.403Z,88.29
2022-11-25T12:14:05.731Z,88.13
2022-11-25T12:16:40.877Z,88.22
2022-11-25T12:19:20.651Z,88.58
2022-11-25T12:28:55.254Z,88.18
2022-11-25T12:31:44.248Z,87.95
2022-11-25T12:34:32.177Z,88.48
2022-11-25T12:37:15.384Z,87.98
2022-11-25T12:39:57.075Z,87.95
2022-11-25T12:42:26.335Z,88.27
2022-11-25T12:45:11.278Z,88.42
2022-11-25T12:47:41.567Z,88.26
2022-11-25T12:50:17.031Z,88.65
2022-11-25T12:52:50.746Z,88.04
2022-11-25T12:55:21.710Z,87.96
2022-11-25T12:58:08.360Z,87.79
2022-11-25T13:00:54.683Z,87.77
2022-11-25T13:03:44.215Z,87.58
2022-11-25T13:06:38.768Z,87.37
2022-11-25T13:09:31.451Z,87.82
2022-11-25T13:12:18.003Z,88.02
2022-11-25T13:15:19.237Z,88.38
2022-11-25T13:17:50.464Z,88.45
2022-11-25T13:20:27.369Z,88.37
2022-11-25T13:26:36.199Z,87.81
2022-11-25T13:29:27.008Z,87.82
2022-11-25T13:32:05.159Z,87.90
2022-11-25T13:34:35.529Z,87.93
2022-11-25T13:37:40.656Z,87.67
2022-11-25T13:40:41.121Z,87.91
2022-11-25T13:43:21.487Z,88.37
2022-11-25T13:45:49.851Z,88.39
2022-11-25T13:48:24.843Z,88.36
2022-11-25T13:51:22.338Z,88.38
2022-11-25T13:53:54.628Z,87.82
2022-11-25T13:56:30.755Z,87.96
2022-11-25T13:59:19.862Z,87.89
2022-11-25T14:01:47.686Z,87.84
2022-11-25T14:04:16.719Z,87.85
2022-11-25T14:06:52.599Z,87.72
2022-11-25T14:09:26.098Z,88.08
2022-11-25T14:12:02.927Z,88.10
2022-11-25T14:14:46.578Z,88.18
2022-11-25T14:17:42.134Z,88.22
2022-11-25T14:20:39.096Z,88.34
2022-11-25T14:23:24.558Z,87.97
2022-11-25T14:25:57.758Z,88.04
2022-11-25T14:28:44.449Z,87.83
2022-11-25T14:31:17.763Z,87.45
2022-11-25T14:33:51.742Z,87.55
2022-11-25T14:36:24.806Z,87.68
2022-11-25T14:38:59.882Z,87.79
2022-11-25T14:41:44.190Z,87.90
2022-11-25T14:44:21.722Z,87.57
2022-11-25T14:46:54.644Z,88.24
2022-11-25T14:49:45.180Z,88.48
2022-11-25T14:52:15.683Z,88.71
2022-11-25T14:54:44.626Z,88.77
2022-11-25T14:57:12.780Z,88.97
2022-11-25T14:59:45.170Z,89.28
2022-11-25T15:02:31.468Z,88.89
2022-11-25T15:05:19.541Z,88.83
2022-11-25T15:08:13.258Z,88.80
2022-11-25T15:10:53.983Z,88.84
2022-11-25T15:13:37.711Z,88.99
2022-11-25T15:16:11.438Z,89.05
2022-11-25T15:19:04.001Z,89.26
2022-11-25T15:21:48.299Z,89.00
2022-11-25T15:27:55.761Z,88.74
2022-11-25T15:30:27.040Z,88.77
2022-11-25T15:32:55.886Z,88.34
2022-11-25T15:35:26.221Z,88.49
2022-11-25T15:37:56.611Z,88.92
2022-11-25T15:40:40.687Z,89.24
2022-11-25T15:43:23.491Z,89.33
2022-11-25T15:45:57.539Z,89.19
2022-11-25T15:48:31.146Z,88.90
2022-11-25T15:51:05.593Z,89.12
2022-11-25T15:53:37.047Z,89.45
2022-11-25T15:56:07.323Z,89.28
2022-11-25T15:58:35.314Z,89.72
2022-11-25T16:01:06.192Z,89.71
2022-11-25T16:03:35.531Z,89.69
2022-11-25T16:06:19.848Z,89.70
2022-11-25T16:08:58.719Z,89.88
2022-11-25T16:11:33.753Z,89.61
2022-11-25T16:14:34.651Z,89.94
2022-11-25T16:17:09.606Z,89.84
2022-11-25T16:19:44.403Z,89.81
2022-11-25T16:22:16.268Z,89.75
2022-11-25T16:24:57.312Z,89.72
2022-11-25T16:27:29.396Z,89.49
2022-11-25T16:30:06.450Z,89.60
2022-11-25T16:32:34.618Z,89.58
2022-11-25T16:35:18.251Z,89.61
2022-11-25T16:37:49.228Z,89.74
2022-11-25T16:40:18.707Z,89.84
2022-11-25T16:42:48.373Z,89.79
2022-11-25T16:45:26.396Z,89.66
2022-11-25T16:47:55.234Z,89.88
2022-11-25T16:50:23.820Z,90.04
2022-11-25T16:52:51.558Z,89.85
2022-11-25T16:55:19.279Z,89.74
2022-11-25T16:57:47.152Z,89.71
2022-11-25T17:00:17.149Z,89.63
2022-11-25T17:02:45.357Z,89.13
2022-11-25T17:05:19.271Z,89.16
2022-11-25T17:07:47.925Z,88.83
2022-11-25T17:10:16.458Z,89.50
2022-11-25T17:12:45.363Z,89.37
2022-11-25T17:15:19.955Z,90.01
2022-11-25T17:17:49.136Z,90.29
2022-11-25T17:20:21.697Z,90.55
2022-11-25T17:22:49.959Z,90.67
2022-11-25T17:25:18.142Z,90.38
2022-11-25T17:27:46.263Z,90.56
2022-11-25T17:30:27.346Z,90.26
2022-11-25T17:33:03.651Z,90.57
2022-11-25T17:35:31.664Z,90.52
2022-11-25T17:38:01.022Z,90.57
2022-11-25T17:40:28.884Z,90.67
2022-11-25T17:42:57.154Z,90.28
2022-11-25T17:45:25.004Z,90.89
2022-11-25T17:47:52.747Z,90.40
2022-11-25T17:50:23.068Z,91.11
2022-11-25T17:52:51.473Z,90.02
2022-11-25T17:55:21.968Z,90.07
2022-11-25T17:57:49.896Z,90.18
2022-11-25T18:00:21.415Z,89.38
2022-11-25T18:02:49.720Z,89.44
2022-11-25T18:05:20.346Z,89.09
2022-11-25T18:07:49.171Z,89.75
2022-11-25T18:10:19.872Z,89.61
2022-11-25T18:12:49.824Z,89.78
2022-11-25T18:15:22.467Z,89.77
2022-11-25T18:17:53.536Z,89.92
2022-11-25T18:20:26.228Z,89.90
2022-11-25T18:22:54.190Z,90.12
2022-11-25T18:25:29.293Z,90.12
2022-11-25T18:27:58.090Z,89.52
2022-11-25T18:30:31.085Z,89.78
2022-11-25T18:33:00.759Z,89.51
2022-11-25T18:35:35.810Z,89.52
2022-11-25T18:38:05.188Z,89.25
2022-11-25T18:40:35.126Z,89.83
2022-11-25T18:43:04.670Z,89.95
2022-11-25T18:45:37.683Z,90.09
2022-11-25T18:48:16.158Z,90.18
2022-11-25T18:50:45.106Z,89.87
2022-11-25T18:53:13.477Z,90.16
2022-11-25T18:55:41.975Z,90.46
2022-11-25T18:58:17.207Z,90.03
2022-11-25T19:00:50.171Z,89.75
2022-11-25T19:03:23.473Z,90.07
2022-11-25T19:05:54.184Z,90.07
2022-11-25T19:08:21.929Z,89.77
2022-11-25T19:10:50.791Z,90.30
2022-11-25T19:13:31.768Z,90.51
2022-11-25T19:16:06.397Z,91.00
2022-11-25T19:18:35.201Z,90.47
2022-11-25T19:21:03.294Z,90.96
2022-11-25T19:27:01.974Z,90.84
2022-11-25T19:29:29.624Z,90.73
2022-11-25T19:31:58.431Z,90.56
2022-11-25T19:34:38.533Z,91.00
2022-11-25T19:37:06.443Z,90.81
2022-11-25T19:39:36.390Z,90.67
2022-11-25T19:42:04.154Z,90.25
2022-11-25T19:44:31.919Z,90.20
2022-11-25T19:47:14.720Z,90.53
2022-11-25T19:49:44.103Z,90.43
2022-11-25T19:52:18.024Z,90.12
2022-11-25T19:54:48.373Z,90.24
2022-11-25T19:57:22.132Z,90.50
2022-11-25T19:59:50.150Z,90.24
2022-11-25T20:02:22.837Z,90.47
2022-11-25T20:04:54.333Z,90.88
2022-11-25T20:07:22.301Z,90.17
2022-11-25T20:09:51.566Z,90.82
2022-11-25T20:12:20.158Z,90.53
2022-11-25T20:14:48.835Z,90.43
2022-11-25T20:17:32.790Z,90.42
2022-11-25T20:20:11.642Z,90.29
2022-11-25T20:22:44.265Z,90.64
2022-11-25T20:25:14.797Z,90.38
2022-11-25T20:27:42.617Z,90.67
2022-11-25T20:30:17.171Z,90.63
2022-11-25T20:32:44.964Z,90.84
2022-11-25T20:35:13.382Z,91.23
2022-11-25T20:37:53.832Z,90.80
2022-11-25T20:40:42.124Z,90.69
2022-11-25T20:43:47.422Z,90.33
2022-11-25T20:46:23.914Z,90.88
2022-11-25T20:48:54.509Z,90.42
2022-11-25T20:51:23.817Z,90.54
2022-11-25T20:54:03.329Z,90.70
2022-11-25T20:56:31.038Z,90.95
2022-11-25T20:58:58.728Z,91.09
2022-11-25T21:01:26.704Z,90.62
2022-11-25T21:03:54.580Z,90.91
2022-11-25T21:06:25.675Z,90.62
2022-11-25T21:08:55.648Z,90.98
2022-11-25T21:11:23.434Z,90.54
2022-11-25T21:13:52.172Z,90.57
2022-11-25T21:16:20.212Z,90.46
2022-11-25T21:18:48.017Z,90.82
2022-11-25T21:21:28.716Z,90.68
2022-11-25T21:23:56.853Z,90.64
2022-11-25T21:26:26.581Z,90.88
2022-11-25T21:28:54.748Z,90.93
2022-11-25T21:31:24.789Z,90.75
2022-11-25T21:33:57.610Z,90.69
2022-11-25T21:36:31.224Z,90.65
2022-11-25T21:39:09.089Z,90.54
2022-11-25T21:41:36.931Z,90.22
2022-11-25T21:44:06.261Z,90.37
2022-11-25T21:46:34.186Z,90.26
2022-11-25T21:49:02.124Z,90.27
2022-11-25T21:51:29.849Z,90.61
2022-11-25T21:53:57.502Z,90.37
2022-11-25T21:56:32.082Z,90.10
2022-11-25T21:59:01.578Z,90.92
2022-11-25T22:01:29.859Z,90.97
2022-11-25T22:03:58.122Z,90.82
2022-11-25T22:06:29.138Z,90.84
2022-11-25T22:08:57.442Z,90.53
2022-11-25T22:11:33.715Z,90.71
2022-11-25T22:14:06.614Z,90.67
2022-11-25T22:16:36.663Z,90.56
2022-11-25T22:19:04.541Z,90.63
2022-11-25T22:21:32.408Z,90.31
2022-11-25T22:24:00.162Z,90.19
2022-11-25T22:26:32.763Z,90.30
2022-11-25T22:29:01.917Z,90.30
2022-11-25T22:31:29.712Z,90.59
2022-11-25T22:33:57.736Z,90.67
2022-11-25T22:36:28.300Z,90.50
2022-11-25T22:38:58.987Z,90.77
2022-11-25T22:41:27.114Z,90.93
2022-11-25T22:43:54.941Z,90.82
2022-11-25T22:46:22.791Z,90.76
2022-11-25T22:48:50.603Z,90.82
2022-11-25T22:51:24.801Z,90.58
2022-11-25T22:53:52.640Z,90.84
2022-11-25T22:56:20.478Z,90.69
2022-11-25T22:58:48.677Z,91.12
2022-11-25T23:01:17.202Z,90.78
2022-11-25T23:03:45.187Z,91.19
2022-11-25T23:06:13.911Z,91.12
2022-11-25T23:08:41.778Z,90.88
2022-11-25T23:11:17.378Z,91.32
2022-11-25T23:13:45.138Z,91.01
2022-11-25T23:16:12.867Z,90.82
2022-11-25T23:18:44.784Z,90.60
2022-11-25T23:21:21.394Z,90.50
2022-11-25T23:23:50.260Z,90.25
2022-11-25T23:26:18.153Z,90.15
2022-11-25T23:28:45.877Z,90.26
2022-11-25T23:31:15.371Z,90.67
2022-11-25T23:33:48.506Z,90.93
2022-11-25T23:36:47.364Z,91.64
2022-11-25T23:39:20.095Z,90.82
2022-11-25T23:41:48.856Z,90.32
2022-11-25T23:44:28.627Z,90.37
2022-11-25T23:47:04.271Z,90.42
2022-11-25T23:49:44.102Z,90.62
2022-11-25T23:52:23.097Z,90.97
2022-11-25T23:54:52.401Z,91.23
2022-11-25T23:57:26.827Z,91.17
2022-11-25T23:59:54.732Z,91.21
